createdAt,value
2023-06-07T00:00:42.573Z,14.37
2023-06-07T00:03:10.852Z,14.36
2023-06-07T00:05:40.273Z,14.31
2023-06-07T00:08:08.507Z,14.26
2023-06-07T00:10:35.866Z,14.24
2023-06-07T00:13:03.088Z,14.24
2023-06-07T00:15:30.844Z,14.27
2023-06-07T00:18:01.415Z,14.29
2023-06-07T00:20:28.971Z,14.32
2023-06-07T00:22:59.493Z,14.35
2023-06-07T00:25:26.980Z,14.38
2023-06-07T00:27:54.407Z,14.41
2023-06-07T00:30:22.158Z,14.40
2023-06-07T00:32:49.502Z,14.38
2023-06-07T00:35:16.937Z,14.35
2023-06-07T00:37:44.709Z,14.32
2023-06-07T00:40:12.627Z,14.27
2023-06-07T00:42:39.926Z,14.22
2023-06-07T00:45:07.950Z,14.17
2023-06-07T00:47:38.013Z,14.13
2023-06-07T00:50:06.439Z,14.11
2023-06-07T00:52:35.343Z,14.11
2023-06-07T00:55:03.560Z,14.11
2023-06-07T00:57:30.916Z,14.12
2023-06-07T00:59:58.110Z,14.15
2023-06-07T01:02:27.525Z,14.17
2023-06-07T01:04:56.252Z,14.18
2023-06-07T01:07:26.029Z,14.17
2023-06-07T01:09:54.140Z,14.13
2023-06-07T01:12:21.773Z,14.10
2023-06-07T01:14:49.392Z,14.09
2023-06-07T01:17:18.208Z,14.07
2023-06-07T01:19:46.721Z,14.06
2023-06-07T01:22:15.270Z,14.06
2023-06-07T01:24:43.627Z,14.04
2023-06-07T01:27:11.283Z,14.03
2023-06-07T01:29:38.513Z,14.01
2023-06-07T01:32:09.324Z,13.99
2023-06-07T01:34:36.627Z,13.97
2023-06-07T01:37:03.984Z,13.97
2023-06-07T01:39:31.325Z,14.00
2023-06-07T01:41:58.936Z,14.05
2023-06-07T01:44:26.666Z,14.10
2023-06-07T01:46:53.929Z,14.14
2023-06-07T01:49:22.565Z,14.20
2023-06-07T01:51:49.813Z,14.26
2023-06-07T01:54:17.197Z,14.31
2023-06-07T01:56:47.037Z,14.37
2023-06-07T01:59:24.920Z,14.44
2023-06-07T02:02:17.441Z,14.49
2023-06-07T02:04:46.417Z,14.55
2023-06-07T02:07:17.964Z,14.59
2023-06-07T02:09:45.239Z,14.61
2023-06-07T02:12:12.490Z,14.63
2023-06-07T02:14:39.801Z,14.65
2023-06-07T02:17:08.783Z,14.65
2023-06-07T02:19:38.221Z,14.65
2023-06-07T02:22:06.908Z,14.65
2023-06-07T02:24:35.220Z,14.66
2023-06-07T02:27:03.765Z,14.68
2023-06-07T02:29:30.988Z,14.73
2023-06-07T02:31:59.124Z,14.76
2023-06-07T02:34:27.838Z,14.80
2023-06-07T02:36:55.102Z,14.84
2023-06-07T02:39:23.668Z,14.88
2023-06-07T02:41:50.887Z,14.92
2023-06-07T02:44:18.159Z,14.95
2023-06-07T02:46:45.761Z,14.98
2023-06-07T02:49:13.219Z,15.02
2023-06-07T02:51:40.918Z,15.03
2023-06-07T02:54:10.324Z,15.03
2023-06-07T02:56:37.804Z,15.05
2023-06-07T02:59:05.297Z,15.05
2023-06-07T03:01:35.481Z,15.06
2023-06-07T03:04:02.982Z,15.08
2023-06-07T03:06:31.198Z,15.10
2023-06-07T03:09:02.176Z,15.10
2023-06-07T03:11:30.735Z,15.11
2023-06-07T03:13:58.291Z,15.12
2023-06-07T03:16:29.408Z,15.15
2023-06-07T03:19:00.440Z,15.19
2023-06-07T03:21:27.854Z,15.23
2023-06-07T03:23:57.718Z,15.24
2023-06-07T03:26:25.068Z,15.24
2023-06-07T03:28:53.632Z,15.25
2023-06-07T03:31:21.422Z,15.25
2023-06-07T03:33:55.402Z,15.27
2023-06-07T03:36:25.725Z,15.28
2023-06-07T03:38:54.524Z,15.29
2023-06-07T03:41:22.712Z,15.30
2023-06-07T03:43:53.864Z,15.34
2023-06-07T03:46:21.555Z,15.38
2023-06-07T03:48:52.659Z,15.41
2023-06-07T03:51:20.466Z,15.45
2023-06-07T03:53:48.383Z,15.50
2023-06-07T03:56:15.978Z,15.55
2023-06-07T03:58:46.374Z,15.61
2023-06-07T04:01:17.714Z,15.66
2023-06-07T04:03:45.420Z,15.72
2023-06-07T04:06:13.323Z,15.75
2023-06-07T04:08:41.069Z,15.79
2023-06-07T04:11:09.100Z,15.82
2023-06-07T04:13:36.412Z,15.86
2023-06-07T04:16:04.010Z,15.90
2023-06-07T04:18:31.318Z,15.94
2023-06-07T04:20:58.549Z,15.97
2023-06-07T04:23:26.353Z,16.02
2023-06-07T04:25:57.294Z,16.07
2023-06-07T04:28:24.971Z,16.13
2023-06-07T04:30:54.977Z,16.19
2023-06-07T04:33:23.713Z,16.26
2023-06-07T04:35:51.754Z,16.33
2023-06-07T04:38:23.280Z,16.40
2023-06-07T04:40:53.096Z,16.45
2023-06-07T04:43:43.400Z,16.53
2023-06-07T04:46:12.081Z,16.58
2023-06-07T04:48:42.297Z,16.64
2023-06-07T04:51:11.492Z,16.70
2023-06-07T04:53:44.212Z,16.75
2023-06-07T04:56:14.149Z,16.80
2023-06-07T04:58:41.750Z,16.85
2023-06-07T05:01:11.936Z,16.90
2023-06-07T05:03:43.325Z,16.94
2023-06-07T05:06:12.355Z,17.00
2023-06-07T05:08:40.788Z,17.05
2023-06-07T05:11:08.120Z,17.11
2023-06-07T05:13:35.441Z,17.16
2023-06-07T05:16:04.223Z,17.22
2023-06-07T05:18:31.933Z,17.29
2023-06-07T05:20:59.562Z,17.36
2023-06-07T05:23:28.092Z,17.44
2023-06-07T05:25:56.335Z,17.51
2023-06-07T05:28:23.790Z,17.58
2023-06-07T05:30:54.489Z,17.65
2023-06-07T05:33:22.391Z,17.73
2023-06-07T05:35:49.779Z,17.79
2023-06-07T05:38:18.616Z,17.85
2023-06-07T05:40:45.956Z,17.90
2023-06-07T05:43:13.336Z,17.96
2023-06-07T05:45:41.905Z,18.01
2023-06-07T05:48:09.389Z,18.08
2023-06-07T05:50:36.856Z,18.14
2023-06-07T05:53:04.109Z,18.21
2023-06-07T05:55:31.587Z,18.27
2023-06-07T05:57:59.293Z,18.34
2023-06-07T06:00:26.563Z,18.40
2023-06-07T06:02:54.602Z,18.48
2023-06-07T06:05:22.446Z,18.55
2023-06-07T06:07:50.213Z,18.63
2023-06-07T06:10:17.952Z,18.70
2023-06-07T06:12:45.152Z,18.77
2023-06-07T06:15:12.430Z,18.84
2023-06-07T06:17:39.692Z,18.91
2023-06-07T06:20:09.229Z,18.99
2023-06-07T06:22:36.501Z,19.06
2023-06-07T06:25:04.656Z,19.12
2023-06-07T06:27:32.042Z,19.18
2023-06-07T06:29:59.414Z,19.25
2023-06-07T06:32:26.803Z,19.33
2023-06-07T06:34:54.069Z,19.40
2023-06-07T06:37:21.993Z,19.47
2023-06-07T06:39:49.554Z,19.54
2023-06-07T06:42:16.872Z,19.62
2023-06-07T06:47:29.498Z,19.80
2023-06-07T06:49:57.134Z,19.85
2023-06-07T06:52:25.490Z,19.93
2023-06-07T06:54:52.674Z,20.01
2023-06-07T06:57:19.958Z,20.10
2023-06-07T06:59:50.284Z,20.17
2023-06-07T07:02:17.997Z,20.23
2023-06-07T07:04:45.359Z,20.27
2023-06-07T07:07:12.642Z,20.32
2023-06-07T07:09:39.889Z,20.37
2023-06-07T07:12:08.344Z,20.43
2023-06-07T07:14:35.827Z,20.50
2023-06-07T07:17:03.231Z,20.58
2023-06-07T07:19:30.581Z,20.64
2023-06-07T07:21:57.835Z,20.70
2023-06-07T07:24:25.231Z,20.78
2023-06-07T07:26:52.514Z,20.85
2023-06-07T07:29:20.537Z,20.92
2023-06-07T07:31:47.743Z,20.97
2023-06-07T07:34:15.205Z,21.02
2023-06-07T07:36:45.437Z,21.08
2023-06-07T07:39:12.923Z,21.13
2023-06-07T07:41:43.099Z,21.19
2023-06-07T07:44:10.600Z,21.26
2023-06-07T07:48:48.596Z,21.39
2023-06-07T07:51:16.735Z,21.44
2023-06-07T07:53:44.005Z,21.52
2023-06-07T07:56:11.327Z,21.59
2023-06-07T07:58:38.785Z,21.65
2023-06-07T08:01:09.775Z,21.72
2023-06-07T08:03:37.190Z,21.76
2023-06-07T08:06:04.959Z,21.81
2023-06-07T08:08:32.944Z,21.86
2023-06-07T08:11:01.462Z,21.92
2023-06-07T08:13:29.780Z,22.00
2023-06-07T08:15:57.138Z,22.07
2023-06-07T08:18:24.612Z,22.17
2023-06-07T08:20:52.265Z,22.26
2023-06-07T08:23:19.508Z,22.34
2023-06-07T08:25:46.922Z,22.42
2023-06-07T08:28:14.162Z,22.51
2023-06-07T08:30:42.080Z,22.60
2023-06-07T08:33:09.360Z,22.69
2023-06-07T08:35:36.678Z,22.77
2023-06-07T08:38:03.916Z,22.83
2023-06-07T08:40:31.222Z,22.90
2023-06-07T08:42:58.579Z,22.93
2023-06-07T08:45:26.159Z,22.95
2023-06-07T08:47:53.480Z,22.99
2023-06-07T08:50:21.027Z,23.03
2023-06-07T08:52:49.313Z,23.06
2023-06-07T08:55:16.655Z,23.11
2023-06-07T08:57:47.052Z,23.17
2023-06-07T09:00:14.949Z,23.20
2023-06-07T09:02:42.747Z,23.23
2023-06-07T09:05:11.779Z,23.27
2023-06-07T09:07:39.008Z,23.31
2023-06-07T09:10:07.102Z,23.33
2023-06-07T09:12:36.590Z,23.35
2023-06-07T09:15:06.218Z,23.37
2023-06-07T09:17:56.348Z,23.42
2023-06-07T09:20:25.429Z,23.45
2023-06-07T09:23:10.325Z,23.46
2023-06-07T09:25:39.087Z,23.49
2023-06-07T09:28:11.094Z,23.54
2023-06-07T09:30:57.782Z,23.63
2023-06-07T09:33:35.051Z,23.73
2023-06-07T09:36:10.370Z,23.79
2023-06-07T09:38:37.870Z,23.82
2023-06-07T09:41:06.817Z,23.85
2023-06-07T09:43:55.785Z,23.93
2023-06-07T09:46:23.400Z,24.01
2023-06-07T09:48:54.515Z,24.05
2023-06-07T09:51:22.225Z,24.09
2023-06-07T09:53:52.802Z,24.13
2023-06-07T09:56:21.212Z,24.16
2023-06-07T09:59:08.384Z,24.19
2023-06-07T10:01:38.967Z,24.19
2023-06-07T10:04:07.948Z,24.21
2023-06-07T10:06:36.568Z,24.23
2023-06-07T10:09:05.615Z,24.29
2023-06-07T10:11:37.551Z,24.36
2023-06-07T10:14:12.069Z,24.43
2023-06-07T10:16:43.796Z,24.49
2023-06-07T10:19:28.983Z,24.56
2023-06-07T10:21:57.060Z,24.63
2023-06-07T10:24:33.990Z,24.66
2023-06-07T10:27:09.283Z,24.71
2023-06-07T10:29:42.925Z,24.73
2023-06-07T10:32:31.787Z,24.74
2023-06-07T10:34:59.070Z,24.75
2023-06-07T10:37:31.911Z,24.75
2023-06-07T10:39:59.395Z,24.73
2023-06-07T10:42:26.754Z,24.76
2023-06-07T10:44:55.024Z,24.81
2023-06-07T10:47:22.646Z,24.85
2023-06-07T10:49:50.742Z,24.89
2023-06-07T10:52:18.293Z,24.90
2023-06-07T10:54:46.309Z,24.92
2023-06-07T10:57:13.829Z,24.92
2023-06-07T10:59:41.279Z,24.91
2023-06-07T11:02:30.617Z,24.89
2023-06-07T11:04:58.901Z,24.83
2023-06-07T11:07:32.078Z,24.76
2023-06-07T11:10:06.725Z,24.73
2023-06-07T11:12:41.948Z,24.73
2023-06-07T11:15:21.762Z,24.75
2023-06-07T11:17:53.673Z,24.76
2023-06-07T11:20:36.877Z,24.73
2023-06-07T11:23:29.952Z,24.68
2023-06-07T11:26:07.429Z,24.65
2023-06-07T11:28:38.933Z,24.60
2023-06-07T11:31:11.607Z,24.58
2023-06-07T11:33:42.322Z,24.55
2023-06-07T11:36:10.926Z,24.52
2023-06-07T11:38:38.633Z,24.52
2023-06-07T11:41:06.988Z,24.50
2023-06-07T11:43:34.426Z,24.48
2023-06-07T11:46:01.846Z,24.44
2023-06-07T11:48:30.260Z,24.46
2023-06-07T11:50:58.779Z,24.52
2023-06-07T11:53:30.670Z,24.55
2023-06-07T11:56:05.395Z,24.54
2023-06-07T11:58:33.239Z,24.51
2023-06-07T12:01:00.558Z,24.53
2023-06-07T12:03:28.276Z,24.55
2023-06-07T12:05:56.041Z,24.56
2023-06-07T12:08:23.967Z,24.55
2023-06-07T12:10:55.069Z,24.52
2023-06-07T12:13:23.101Z,24.46
2023-06-07T12:15:54.812Z,24.43
2023-06-07T12:18:29.363Z,24.36
2023-06-07T12:21:10.457Z,24.25
2023-06-07T12:23:39.176Z,24.15
2023-06-07T12:26:11.450Z,24.09
2023-06-07T12:28:40.895Z,24.05
2023-06-07T12:31:15.905Z,24.03
2023-06-07T12:33:57.422Z,23.98
2023-06-07T12:36:27.304Z,23.93
2023-06-07T12:38:54.789Z,23.87
2023-06-07T12:41:25.289Z,23.81
2023-06-07T12:43:52.796Z,23.77
2023-06-07T12:46:20.133Z,23.75
2023-06-07T12:48:47.591Z,23.72
2023-06-07T12:51:14.931Z,23.69
2023-06-07T12:53:42.727Z,23.69
2023-06-07T12:56:10.082Z,23.70
2023-06-07T12:58:37.681Z,23.68
2023-06-07T13:01:05.031Z,23.67
2023-06-07T13:03:32.557Z,23.67
2023-06-07T13:05:59.904Z,23.69
2023-06-07T13:08:27.262Z,23.70
2023-06-07T13:10:54.459Z,23.68
2023-06-07T13:13:23.256Z,23.66
2023-06-07T13:15:50.735Z,23.64
2023-06-07T13:18:18.356Z,23.59
2023-06-07T13:20:45.777Z,23.55
2023-06-07T13:23:13.093Z,23.53
2023-06-07T13:25:40.598Z,23.50
2023-06-07T13:28:07.887Z,23.50
2023-06-07T13:30:35.212Z,23.49
2023-06-07T13:33:04.236Z,23.45
2023-06-07T13:35:35.919Z,23.43
2023-06-07T13:38:05.086Z,23.39
2023-06-07T13:40:32.354Z,23.36
2023-06-07T13:42:59.547Z,23.32
2023-06-07T13:45:26.958Z,23.27
2023-06-07T13:47:54.390Z,23.23
2023-06-07T13:50:21.656Z,23.20
2023-06-07T13:52:48.959Z,23.16
2023-06-07T13:55:16.471Z,23.13
2023-06-07T13:57:43.844Z,23.09
2023-06-07T14:00:11.988Z,23.04
2023-06-07T14:02:39.537Z,22.98
2023-06-07T14:05:07.798Z,22.94
2023-06-07T14:07:35.429Z,22.90
2023-06-07T14:10:02.932Z,22.86
2023-06-07T14:12:30.566Z,22.83
2023-06-07T14:14:57.811Z,22.80
2023-06-07T14:17:25.092Z,22.77
2023-06-07T14:19:52.910Z,22.75
2023-06-07T14:22:20.173Z,22.73
2023-06-07T14:24:47.489Z,22.70
2023-06-07T14:27:16.121Z,22.68
2023-06-07T14:29:43.623Z,22.66
2023-06-07T14:32:11.093Z,22.64
2023-06-07T14:34:38.310Z,22.62
2023-06-07T14:37:05.810Z,22.59
2023-06-07T14:39:33.071Z,22.55
2023-06-07T14:42:00.580Z,22.51
2023-06-07T14:44:27.880Z,22.47
2023-06-07T14:46:55.284Z,22.41
2023-06-07T14:49:22.498Z,22.35
2023-06-07T14:51:49.788Z,22.29
2023-06-07T14:54:17.062Z,22.25
2023-06-07T14:56:44.708Z,22.22
2023-06-07T14:59:14.176Z,22.20
2023-06-07T15:01:42.301Z,22.19
2023-06-07T15:04:09.966Z,22.16
2023-06-07T15:06:37.652Z,22.14
2023-06-07T15:09:05.279Z,22.11
2023-06-07T15:11:32.469Z,22.09
2023-06-07T15:13:59.918Z,22.06
2023-06-07T15:16:27.766Z,22.02
2023-06-07T15:18:56.281Z,21.97
2023-06-07T15:21:23.614Z,21.91
2023-06-07T15:23:51.364Z,21.86
2023-06-07T15:26:19.096Z,21.82
2023-06-07T15:28:46.434Z,21.78
2023-06-07T15:31:13.762Z,21.75
2023-06-07T15:33:41.215Z,21.72
2023-06-07T15:36:08.477Z,21.69
2023-06-07T15:38:38.731Z,21.66
2023-06-07T15:41:09.375Z,21.64
2023-06-07T15:43:37.190Z,21.63
2023-06-07T15:46:04.520Z,21.62
2023-06-07T15:48:31.787Z,21.62
2023-06-07T15:50:59.016Z,21.61
2023-06-07T15:53:26.279Z,21.59
2023-06-07T15:55:53.490Z,21.56
2023-06-07T15:58:20.905Z,21.54
2023-06-07T16:00:49.464Z,21.52
2023-06-07T16:03:17.445Z,21.49
2023-06-07T16:05:44.992Z,21.47
2023-06-07T16:08:14.350Z,21.45
2023-06-07T16:10:43.430Z,21.42
2023-06-07T16:13:10.988Z,21.39
2023-06-07T16:15:38.453Z,21.37
2023-06-07T16:18:06.315Z,21.36
2023-06-07T16:20:33.896Z,21.36
2023-06-07T16:23:01.707Z,21.37
2023-06-07T16:25:29.203Z,21.37
2023-06-07T16:27:56.671Z,21.37
2023-06-07T16:30:23.875Z,21.38
2023-06-07T16:32:51.182Z,21.38
2023-06-07T16:35:18.456Z,21.38
2023-06-07T16:37:46.655Z,21.37
2023-06-07T16:40:15.085Z,21.36
2023-06-07T16:42:43.491Z,21.34
2023-06-07T16:45:11.980Z,21.32
2023-06-07T16:47:39.298Z,21.29
2023-06-07T16:50:07.713Z,21.26
2023-06-07T16:52:35.337Z,21.22
2023-06-07T16:55:02.550Z,21.16
2023-06-07T16:57:29.804Z,21.13
2023-06-07T16:59:59.039Z,21.08
2023-06-07T17:02:26.383Z,21.03
2023-06-07T17:04:53.876Z,20.97
2023-06-07T17:07:21.302Z,20.92
2023-06-07T17:09:49.174Z,20.85
2023-06-07T17:12:16.619Z,20.79
2023-06-07T17:14:49.429Z,20.75
2023-06-07T17:17:17.329Z,20.72
2023-06-07T17:19:44.778Z,20.68
2023-06-07T17:22:12.174Z,20.65
2023-06-07T17:24:39.445Z,20.60
2023-06-07T17:27:08.587Z,20.51
2023-06-07T17:29:36.128Z,20.39
2023-06-07T17:32:03.723Z,20.28
2023-06-07T17:34:31.172Z,20.19
2023-06-07T17:36:58.460Z,20.10
2023-06-07T17:39:25.914Z,19.97
2023-06-07T17:41:53.230Z,19.87
2023-06-07T17:44:22.792Z,19.78
2023-06-07T17:46:50.059Z,19.71
2023-06-07T17:49:19.683Z,19.63
2023-06-07T17:51:48.677Z,19.54
2023-06-07T17:54:15.969Z,19.43
2023-06-07T17:56:44.023Z,19.35
2023-06-07T17:59:11.212Z,19.30
2023-06-07T18:01:42.939Z,19.26
2023-06-07T18:04:12.303Z,19.23
2023-06-07T18:06:40.590Z,19.20
2023-06-07T18:09:08.063Z,19.19
2023-06-07T18:11:35.796Z,19.17
2023-06-07T18:14:03.148Z,19.14
2023-06-07T18:16:30.886Z,19.10
2023-06-07T18:18:58.596Z,19.07
2023-06-07T18:21:26.175Z,19.05
2023-06-07T18:23:53.539Z,19.04
2023-06-07T18:26:22.763Z,19.04
2023-06-07T18:28:50.854Z,19.02
2023-06-07T18:31:18.616Z,19.00
2023-06-07T18:33:45.997Z,18.99
2023-06-07T18:36:13.238Z,18.97
2023-06-07T18:38:40.884Z,18.95
2023-06-07T18:41:08.103Z,18.92
2023-06-07T18:43:35.403Z,18.90
2023-06-07T18:46:02.893Z,18.86
2023-06-07T18:48:30.237Z,18.82
2023-06-07T18:50:57.582Z,18.77
2023-06-07T18:53:25.021Z,18.71
2023-06-07T18:55:52.399Z,18.65
2023-06-07T18:58:20.087Z,18.55
2023-06-07T19:00:49.596Z,18.44
2023-06-07T19:03:17.270Z,18.35
2023-06-07T19:05:44.699Z,18.27
2023-06-07T19:08:12.406Z,18.20
2023-06-07T19:10:39.608Z,18.11
2023-06-07T19:13:06.900Z,18.02
2023-06-07T19:15:34.280Z,17.95
2023-06-07T19:18:05.224Z,17.90
2023-06-07T19:20:35.182Z,17.85
2023-06-07T19:23:02.466Z,17.82
2023-06-07T19:25:29.754Z,17.80
2023-06-07T19:27:57.164Z,17.78
2023-06-07T19:30:24.396Z,17.73
2023-06-07T19:32:51.845Z,17.68
2023-06-07T19:35:19.278Z,17.63
2023-06-07T19:37:46.738Z,17.57
2023-06-07T19:40:17.387Z,17.52
2023-06-07T19:42:44.818Z,17.48
2023-06-07T19:45:12.568Z,17.43
2023-06-07T19:47:40.074Z,17.40
2023-06-07T19:50:08.010Z,17.37
2023-06-07T19:52:35.970Z,17.32
2023-06-07T19:55:03.985Z,17.28
2023-06-07T19:57:31.473Z,17.23
2023-06-07T19:59:58.713Z,17.18
2023-06-07T20:02:26.129Z,17.14
2023-06-07T20:05:32.178Z,17.11
2023-06-07T20:07:59.457Z,17.06
2023-06-07T20:10:26.850Z,17.05
2023-06-07T20:12:54.363Z,17.03
2023-06-07T20:15:21.569Z,17.01
2023-06-07T20:17:48.937Z,17.01
2023-06-07T20:20:16.734Z,17.03
2023-06-07T20:22:43.974Z,17.06
2023-06-07T20:25:11.498Z,17.09
2023-06-07T20:27:38.956Z,17.11
2023-06-07T20:30:07.322Z,17.12
2023-06-07T20:32:34.986Z,17.11
2023-06-07T20:35:02.395Z,17.08
2023-06-07T20:37:29.711Z,17.04
2023-06-07T20:39:57.525Z,17.01
2023-06-07T20:42:24.717Z,16.96
2023-06-07T20:44:53.280Z,16.92
2023-06-07T20:47:21.631Z,16.88
2023-06-07T20:49:49.343Z,16.83
2023-06-07T20:52:16.753Z,16.81
2023-06-07T20:54:44.348Z,16.78
2023-06-07T20:57:11.725Z,16.75
2023-06-07T20:59:48.409Z,16.73
2023-06-07T21:02:15.822Z,16.69
2023-06-07T21:04:43.022Z,16.66
2023-06-07T21:07:10.258Z,16.61
2023-06-07T21:09:37.550Z,16.58
2023-06-07T21:12:07.326Z,16.54
2023-06-07T21:14:34.755Z,16.52
2023-06-07T21:17:01.999Z,16.51
2023-06-07T21:19:29.233Z,16.52
2023-06-07T21:21:56.455Z,16.53
2023-06-07T21:24:23.831Z,16.53
2023-06-07T21:26:51.225Z,16.55
2023-06-07T21:29:18.844Z,16.58
2023-06-07T21:31:46.226Z,16.61
2023-06-07T21:34:16.696Z,16.64
2023-06-07T21:36:43.880Z,16.68
2023-06-07T21:39:11.134Z,16.70
2023-06-07T21:41:38.810Z,16.71
2023-06-07T21:44:06.035Z,16.70
2023-06-07T21:46:33.484Z,16.71
2023-06-07T21:49:00.909Z,16.72
2023-06-07T21:51:28.270Z,16.75
2023-06-07T21:53:55.578Z,16.77
2023-06-07T21:56:22.794Z,16.81
2023-06-07T21:58:50.047Z,16.85
2023-06-07T22:01:17.415Z,16.88
2023-06-07T22:03:44.950Z,16.92
2023-06-07T22:06:12.732Z,16.95
2023-06-07T22:08:42.165Z,16.97
2023-06-07T22:11:09.368Z,17.00
2023-06-07T22:13:38.176Z,17.01
2023-06-07T22:16:06.049Z,17.03
2023-06-07T22:18:36.702Z,17.04
2023-06-07T22:21:04.351Z,17.04
2023-06-07T22:23:32.213Z,17.04
2023-06-07T22:26:01.093Z,17.05
2023-06-07T22:28:30.919Z,17.06
2023-06-07T22:30:58.735Z,17.08
2023-06-07T22:33:26.065Z,17.09
2023-06-07T22:35:58.151Z,17.08
2023-06-07T22:38:25.992Z,17.08
2023-06-07T22:40:53.290Z,17.09
2023-06-07T22:43:20.773Z,17.10
2023-06-07T22:45:48.044Z,17.11
2023-06-07T22:48:16.794Z,17.13
2023-06-07T22:50:44.080Z,17.13
2023-06-07T22:53:13.413Z,17.13
2023-06-07T22:55:41.865Z,17.11
2023-06-07T22:58:09.188Z,17.09
2023-06-07T23:00:36.951Z,17.06
2023-06-07T23:03:05.235Z,17.04
2023-06-07T23:05:33.702Z,17.03
2023-06-07T23:08:01.004Z,17.02
2023-06-07T23:10:37.306Z,17.02
2023-06-07T23:13:16.571Z,17.02
2023-06-07T23:15:46.310Z,17.02
2023-06-07T23:18:16.130Z,16.99
2023-06-07T23:20:46.851Z,16.94
2023-06-07T23:23:14.132Z,16.86
2023-06-07T23:25:41.864Z,16.77
2023-06-07T23:28:09.125Z,16.73
2023-06-07T23:30:36.483Z,16.69
2023-06-07T23:33:04.719Z,16.68
2023-06-07T23:35:32.245Z,16.67
2023-06-07T23:38:01.208Z,16.64
2023-06-07T23:40:28.457Z,16.61
2023-06-07T23:42:57.766Z,16.54
2023-06-07T23:45:27.468Z,16.49
2023-06-07T23:47:54.849Z,16.44
2023-06-07T23:50:22.200Z,16.42
2023-06-07T23:52:49.531Z,16.40
2023-06-07T23:55:16.767Z,16.40
2023-06-07T23:57:43.963Z,16.39
